»·PEaware :: GPD250 KSJC-U74

GPD250 :: KSJC-U74

FLIGHT INFORMATION

Flight Status: Arrived
Operator: Unknown
More flights by this operator :: More flights under this callsign
Pilot: Anonymous 13363 (13363)
Aircraft: PILATUS PC-12 EAGLE
(PC12)
More flights by this aircraft type
Origin: KSJC Mineta San Jose Intl
United States
Destination: U74 Crescent Valley
United States
More flights between these airports :: More routes between these airports
Route: +SUNOL9 LIN J84 SONNY OAL
File this flight plan on PilotEdge
Remarks:
Altitude:
(Current/Filed)
17,500ft
Speed:
(Current/Filed)
276kts
Departed: 03-Feb-18 09:44 PM
Arrived: 03-Feb-18 10:23 PM
Distance/Time
Traveled:
303nm/0:39
Distance/Time
To Go:
Arrived

Flight Plot

Page will automatically refresh every two minutes.

Flight plan parsing failed; only flown route is shown


Map Options




Map Legend


Flown Route
Filed Route
Departure Airport
Arrival Airport
Navaid (VOR, NDB)
Fix

Horizontal Profiles

Position Reports

Time Latitude Longitude Heading Altitude Ground
Speed
03-Feb-18 21:49 38.123699 -117.074167 7 8325ft 131kts
03-Feb-18 21:50 38.159562 -117.066537 7 10239ft 134kts
03-Feb-18 21:51 38.196410 -117.058589 7 12059ft 138kts
03-Feb-18 21:52 38.234456 -117.050379 7 13819ft 142kts
03-Feb-18 21:53 38.271809 -117.042399 0 15514ft 149kts
03-Feb-18 21:54 38.316708 -117.032785 3 16847ft 179kts
03-Feb-18 21:55 38.372172 -117.020668 12 17490ft 239kts
03-Feb-18 21:56 38.443526 -117.004873 14 17484ft 272kts
03-Feb-18 21:57 38.517433 -116.988785 11 17479ft 265kts
03-Feb-18 21:58 38.585239 -116.974214 11 17478ft 259kts
03-Feb-18 21:59 38.655690 -116.959247 11 17478ft 256kts
03-Feb-18 22:00 38.726282 -116.943866 9 17480ft 255kts
03-Feb-18 22:01 38.796697 -116.928438 8 17406ft 261kts
03-Feb-18 22:02 38.868916 -116.912617 6 17464ft 265kts
03-Feb-18 22:03 38.939903 -116.896988 11 17456ft 255kts
03-Feb-18 22:04 39.009287 -116.881726 11 17457ft 253kts
03-Feb-18 22:05 39.078407 -116.866471 11 17456ft 252kts
03-Feb-18 22:06 39.147259 -116.851240 11 17462ft 252kts
03-Feb-18 22:07 39.216318 -116.835931 11 17461ft 253kts
03-Feb-18 22:08 39.285027 -116.820649 7 17458ft 250kts
03-Feb-18 22:09 39.354148 -116.805307 6 17462ft 254kts
03-Feb-18 22:10 39.424048 -116.789721 6 17461ft 256kts
03-Feb-18 22:11 39.494004 -116.774078 6 17461ft 256kts
03-Feb-18 22:12 39.564056 -116.758389 6 17460ft 256kts
03-Feb-18 22:13 39.634021 -116.742691 6 17460ft 256kts
03-Feb-18 22:14 39.704049 -116.726945 6 17459ft 255kts
03-Feb-18 22:15 39.773803 -116.711212 6 17456ft 253kts
03-Feb-18 22:16 39.843454 -116.695508 6 17459ft 254kts
03-Feb-18 22:17 39.908588 -116.679697 6 16850ft 215kts
03-Feb-18 22:18 39.961738 -116.667282 5 15976ft 174kts
03-Feb-18 22:19 40.009377 -116.657362 4 15282ft 205kts
03-Feb-18 22:20 40.072975 -116.642981 6 14594ft 250kts
03-Feb-18 22:21 40.143695 -116.626678 9 13889ft 271kts
03-Feb-18 22:22 40.219789 -116.609236 7 13126ft 281kts
03-Feb-18 22:23 40.294832 -116.591975 8 12125ft 275kts
03-Feb-18 22:24 40.370871 -116.574529 9 11053ft 279kts
03-Feb-18 22:25 40.443130 -116.561133 344 9147ft 255kts
03-Feb-18 22:26 40.453787 -116.624234 203 7463ft 217kts
03-Feb-18 22:27 40.404769 -116.620573 155 6640ft 125kts
03-Feb-18 22:28 40.405633 -116.584532 65 5269ft 106kts
03-Feb-18 22:29 40.414521 -116.558373 64 4756ft 36kts
03-Feb-18 22:30 40.415585 -116.555150 66 4749ft 0kts
03-Feb-18 22:31 40.415585 -116.555150 66 4749ft 0kts
03-Feb-18 22:32 40.415585 -116.555150 66 4749ft 0kts
03-Feb-18 22:33 40.416108 -116.553635 240 4746ft 0kts
03-Feb-18 22:34 40.416029 -116.553791 236 4746ft 20kts
03-Feb-18 22:35 40.388175 -116.574223 197 5521ft 182kts
03-Feb-18 22:36 40.330558 -116.597027 199 5367ft 240kts
03-Feb-18 22:37 40.270582 -116.618750 188 4994ft 185kts
03-Feb-18 22:38 40.243455 -116.621142 184 4774ft 1kts
03-Feb-18 22:39 40.341545 -116.570356 191 5100ft 146kts
03-Feb-18 22:40 40.283012 -116.585308 196 5222ft 192kts
03-Feb-18 22:41 40.248525 -116.600179 211 4767ft 22kts
03-Feb-18 22:42 40.248334 -116.600323 200 4767ft 0kts
03-Feb-18 22:43 40.248334 -116.600323 200 4767ft 0kts

Navigation Log

Ident Type
Flight plan parsing failed, navigation log unavailable